• Join FlightAware (Why Join?)
  • Login
  • US Flag 
08:13PM EDT


 

Airport Tracker/Info


-or-


 

Live Flight TrackerFlight Track Log ✈ AWE3418 ✈ 22-Sep-2013 ✈ KCMH - KPHL

Flight Track Log - Related Links

Times and Time Zones

All times are in EDT time to prevent confusion due to time zone crossing. See the AWE3418 flight status page for this flight to view local times or setup timezone preferences in your user account.

Time Position Orientation Groundspeed Altitude Reporting Facility
EDT Latitude Longitude Course Direction KTS MPH feet Rate Location/Type
04:11PM 40.0028 -82.9903 75° East 197 227 3,200  Level Cleveland Center
04:12PM 40.0026 -82.5131 79° East  Level Estimated
04:12PM 39.9839 -83.0733 253° West 237 273 5,500  Level Indianapolis Center
04:12PM 39.9483 -83.0761 183° South 284 327 6,600 2,580 Climbing Indianapolis Center
04:13PM 40.0042 -82.3868 81° East  Level Estimated
04:13PM 39.9253 -83.0122 115° Southeast 281 323 8,200  Level Indianapolis Center
04:14PM 40.0316 -82.2655 74° East  Level FlightAware Approximate
04:14PM 39.9186 -82.9069 95° East 288 331 10,500  Level Indianapolis Center
04:15PM 40.0324 -82.1391 83° East  Level Estimated
04:15PM 39.9100 -82.7906 95° East 313 360 12,300  Level Indianapolis Center
04:16PM 40.0576 -82.0144 75° East  Level FlightAware Approximate
04:16PM 39.9131 -82.6686 88° East 334 384 14,200  Level Indianapolis Center
04:17PM 39.9356 -82.5492 76° East 339 390 16,200 1,800 Climbing Indianapolis Center
04:18PM 39.9558 -82.4272 78° East 344 396 18,000 1,740 Climbing Indianapolis Center
04:19PM 39.9828 -82.2761 77° East 355 409 19,900 1,560 Climbing Indianapolis Center
04:20PM 40.0039 -82.1472 78° East 362 417 21,300 1,320 Climbing Indianapolis Center
04:21PM 40.0264 -82.0131 78° East 374 430 22,700 1,260 Climbing Indianapolis Center
04:22PM 40.0486 -81.8761 78° East 384 442 24,000 1,200 Climbing Indianapolis Center
04:23PM 40.0739 -81.7281 77° East 397 457 25,200 1,200 Climbing Indianapolis Center
04:24PM 40.0986 -81.5817 78° East 408 470 26,500 1,200 Climbing Indianapolis Center
04:25PM 40.1225 -81.4339 78° East 413 475 27,700 1,200 Climbing Indianapolis Center
04:26PM 40.1503 -81.2586 78° East 418 481 29,000 600 Climbing Indianapolis Center
04:27PM 40.1756 -81.1039 78° East 427 491 29,000  Level Indianapolis Center
04:28PM 40.2008 -80.9425 78° East 429 494 29,000  Level Cleveland Center
04:29PM 40.2256 -80.7908 78° East 429 494 29,000  Level Cleveland Center
04:31PM 40.2500 -80.6392 78° East 433 498 29,000  Level Cleveland Center
04:32PM 40.2644 -80.4858 83° East 432 497 29,000  Level Cleveland Center
04:33PM 40.2714 -80.3008 87° East 433 498 29,000  Level Cleveland Center
04:34PM 40.2767 -80.1492 87° East 430 495 29,000  Level Cleveland Center
04:35PM 40.2825 -79.9967 87° East 430 495 29,000  Level Cleveland Center
04:36PM 40.2875 -79.8422 88° East 430 495 29,000  Level Cleveland Center
04:37PM 40.2936 -79.6539 88° East 434 499 29,000  Level Cleveland Center
04:38PM 40.2981 -79.4972 88° East 434 499 29,000  Level Cleveland Center
04:39PM 40.3025 -79.3397 88° East 434 499 29,000  Level Cleveland Center
04:40PM 40.3078 -79.1725 88° East 432 497 29,000  Level Cleveland Center
04:41PM 40.3117 -79.0156 88° East 434 499 29,000  Level Cleveland Center
04:42PM 40.3153 -78.8589 88° East 434 499 29,000  Level Cleveland Center
04:43PM 40.3167 -78.6711 89° East 435 501 29,000  Level Cleveland Center
04:44PM 40.3164 -78.5147 90° East 437 503 29,000  Level Cleveland Center
04:45PM 40.3161 -78.3569 90° East 437 503 29,000 -720 Level Cleveland Center
04:46PM 40.3156 -78.2022 90° East 435 501 27,600 -1,560 Descending Cleveland Center
04:47PM 40.3142 -78.0506 91° East 428 493 25,800 -1,260 Descending Cleveland Center
04:48PM 40.3044 -77.8697 94° East 417 480 25,000 -420 Descending New York Center
04:49PM 40.2903 -77.7239 97° East 407 468 25,000 -300 Level New York Center
04:50PM 40.2719 -77.5725 99° East 407 468 24,500 -780 Descending New York Center
04:51PM 40.2550 -77.4292 99° East 413 475 23,500 -1,260 Descending New York Center
04:52PM 40.2403 -77.2836 98° East 405 466 22,000 -1,860 Descending New York Center
04:53PM 40.2242 -77.1569 99° East 405 466 19,800 -2,100 Descending New York Center
04:54PM 40.2086 -77.0197 98° East 390 449 17,800 -1,440 Descending New York Center
04:55PM 40.1914 -76.8714 99° East 373 429 17,000 -420 Descending New York Center
04:56PM 40.1753 -76.7394 99° East 368 423 17,000  Level New York Center
04:57PM 40.1589 -76.6078 99° East 368 423 17,000 -300 Level New York Center
04:58PM 40.1456 -76.4925 99° East 362 417 16,400 -960 Descending New York Center
04:59PM 40.1256 -76.3497 100° East 357 411 15,100 -1,440 Descending New York Center
05:00PM 40.1147 -76.2239 96° East 357 411 13,600 -1,500 Descending New York Center
05:01PM 40.1058 -76.0956 95° East 351 404 12,200 -1,500 Descending New York Center
05:02PM 40.1003 -75.9867 94° East 351 404 10,700 -1,500 Descending New York Center
05:03PM 40.0869 -75.8608 98° East 332 382 9,200 -1,380 Descending New York Center
05:04PM 40.0831 -75.7628 93° East 309 356 8,000 -1,380 Descending New York Center
05:05PM 40.0733 -75.6428 96° East 298 343 6,500 -1,020 Descending New York Center
05:06PM 40.0708 -75.5503 92° East 293 337 6,000 -300 Descending New York Center
05:07PM 40.0650 -75.4386 94° East 288 331 6,000  Level New York Center
05:08PM 40.0622 -75.3517 92° East 277 319 6,000  Level New York Center
05:09PM 40.0575 -75.2511 93° East 277 319 6,000  Level New York Center
05:10PM 40.0036 -75.1881 138° Southeast 235 270 6,000  Level New York Center
05:11PM 39.9853 -75.1219 110° East 219 252 6,000 -300 Level New York Center
05:12PM 39.9986 -75.0467 77° East 192 221 5,500 -1,020 Descending New York Center
05:13PM 40.0111 -74.9853 75° East 184 212 4,000 -900 Descending New York Center
05:14PM 39.9644 -74.9525 152° Southeast 142 163 3,800 -480 Descending New York Center
05:15PM 39.9167 -75.0000 217° Southwest 178 205 3,000 -600 Descending Philadelphia TRACON
05:16PM 39.9000 -75.0667 252° West 169 194 2,500 -720 Descending Philadelphia TRACON
05:17PM 39.9000 -75.1167 270° West 149 171 1,600 -840 Descending Philadelphia TRACON
05:18PM 39.8833 -75.1667 247° West 135 155 900 -720 Descending Philadelphia TRACON
05:19PM 39.8833 -75.2167 270° West 136 157 200 -720 Descending Philadelphia TRACON